^^
Station Historical Data
Daily Summary for November 16, 2017 Units:  Both    English   Metric
« Previous Day
Next Day »
Daily Weekly Monthly Yearly Custom
  High: Low: Average:
Temperature: TemperatureF °F /  -17.8 °C 46.8 °F /  8.2 °C 61.1 °F /  16.2 °C
Dew Point: DewpointF °F /  -17.8 °C 13.1 °F /  -10.5 °C 21.8 °F /  -5.7 °C
Humidity: Humidity% 9% 24%
Wind Speed: WindSpeedMPHmph /  0km/h - 3.2mph /  5.1km/h
Wind Gust: WindSpeedGustMPHmph /  0km/h - -
Wind- - ESE
Pressure: PressureIn in /  0 hPa 30.29 in /  1025.6 hPa -
Precipitation: 0.00 in /  0 mm    
Historical Graphs
 
 
Tabular Data for November 16, 2017
Time Temperature Dew Point Pressure Wind Wind Speed Wind Gust Humidity Rainfall Rate (Hourly) solar Conditions
TemperatureF °F /  -17.8 °C DewpointF °F /  -17.8 °C PressureInin /  0hPa Calm     Humidity% HourlyPrecipInin /  0mm SolarRadiationWatts/m^2 W/m2 Conditions
00:04 53.2 °F /  11.8 °C 14.4 °F /  -9.8 °C 30.38in /  1028.7hPa East 2.9mph /  4.7km/h 6.0mph /  9.7km/h 21% 0.00in /  0mm 0.0 W/m2
00:09 53.2 °F /  11.8 °C 14.4 °F /  -9.8 °C 30.38in /  1028.7hPa ESE 2.9mph /  4.7km/h 7.0mph /  11.3km/h 21% 0.00in /  0mm 0.0 W/m2
00:14 53.1 °F /  11.7 °C 15.3 °F /  -9.3 °C 30.37in /  1028.3hPa SE 2.0mph /  3.2km/h 6.0mph /  9.7km/h 22% 0.00in /  0mm 0.0 W/m2
00:19 52.9 °F /  11.6 °C 15.1 °F /  -9.4 °C 30.37in /  1028.3hPa Calm   7.0mph /  11.3km/h 22% 0.00in /  0mm 0.0 W/m2
00:24 52.7 °F /  11.5 °C 16.0 °F /  -8.9 °C 30.38in /  1028.7hPa South 6.9mph /  11.1km/h 7.0mph /  11.3km/h 23% 0.00in /  0mm 0.0 W/m2
00:29 52.5 °F /  11.4 °C 15.8 °F /  -9 °C 30.38in /  1028.7hPa Calm   7.0mph /  11.3km/h 23% 0.00in /  0mm 0.0 W/m2
00:34 52.3 °F /  11.3 °C 15.6 °F /  -9.1 °C 30.37in /  1028.3hPa ESE 6.0mph /  9.7km/h 6.0mph /  9.7km/h 23% 0.00in /  0mm 0.0 W/m2
00:39 52.3 °F /  11.3 °C 16.5 °F /  -8.6 °C 30.38in /  1028.7hPa SE 2.9mph /  4.7km/h 5.0mph /  8km/h 24% 0.00in /  0mm 0.0 W/m2
00:44 52.3 °F /  11.3 °C 17.6 °F /  -8 °C 30.38in /  1028.7hPa SE 2.0mph /  3.2km/h 11.0mph /  17.7km/h 25% 0.00in /  0mm 0.0 W/m2
00:49 52.2 °F /  11.2 °C 17.4 °F /  -8.1 °C 30.37in /  1028.3hPa SE 0.9mph /  1.4km/h 5.0mph /  8km/h 25% 0.00in /  0mm 0.0 W/m2
00:54 52.2 °F /  11.2 °C 18.3 °F /  -7.6 °C 30.37in /  1028.3hPa SSE 4.0mph /  6.4km/h 8.0mph /  12.9km/h 26% 0.00in /  0mm 0.0 W/m2
01:00 52.2 °F /  11.2 °C 18.3 °F /  -7.6 °C 30.38in /  1028.7hPa Calm   7.0mph /  11.3km/h 26% 0.00in /  0mm 0.0 W/m2
01:05 52.0 °F /  11.1 °C 18.1 °F /  -7.7 °C 30.37in /  1028.3hPa ESE 2.9mph /  4.7km/h 4.0mph /  6.4km/h 26% 0.00in /  0mm 0.0 W/m2
01:10 51.8 °F /  11 °C 18.0 °F /  -7.8 °C 30.37in /  1028.3hPa ESE 0.9mph /  1.4km/h 4.0mph /  6.4km/h 26% 0.00in /  0mm 0.0 W/m2
01:15 51.6 °F /  10.9 °C 17.8 °F /  -7.9 °C 30.38in /  1028.7hPa ESE 0.9mph /  1.4km/h 6.0mph /  9.7km/h 26% 0.00in /  0mm 0.0 W/m2
01:20 51.3 °F /  10.7 °C 18.3 °F /  -7.6 °C 30.38in /  1028.7hPa SE 4.9mph /  7.9km/h 6.0mph /  9.7km/h 27% 0.00in /  0mm 0.0 W/m2
01:25 51.1 °F /  10.6 °C 18.3 °F /  -7.6 °C 30.37in /  1028.3hPa ESE 4.9mph /  7.9km/h 6.0mph /  9.7km/h 27% 0.00in /  0mm 0.0 W/m2
01:30 51.1 °F /  10.6 °C 19.0 °F /  -7.2 °C 30.37in /  1028.3hPa ESE 6.0mph /  9.7km/h 7.0mph /  11.3km/h 28% 0.00in /  0mm 0.0 W/m2
01:35 51.1 °F /  10.6 °C 19.0 °F /  -7.2 °C 30.37in /  1028.3hPa SSE 2.0mph /  3.2km/h 9.0mph /  14.5km/h 28% 0.00in /  0mm 0.0 W/m2
01:40 50.9 °F /  10.5 °C 18.9 °F /  -7.3 °C 30.37in /  1028.3hPa SE 6.9mph /  11.1km/h 9.0mph /  14.5km/h 28% 0.00in /  0mm 0.0 W/m2
01:45 50.7 °F /  10.4 °C 19.6 °F /  -6.9 °C 30.37in /  1028.3hPa East 0.9mph /  1.4km/h 6.0mph /  9.7km/h 29% 0.00in /  0mm 0.0 W/m2
01:51 50.9 °F /  10.5 °C 19.8 °F /  -6.8 °C 30.37in /  1028.3hPa ESE 4.9mph /  7.9km/h 10.0mph /  16.1km/h 29% 0.00in /  0mm 0.0 W/m2
01:56 50.9 °F /  10.5 °C 19.8 °F /  -6.8 °C 30.36in /  1028hPa Calm   11.0mph /  17.7km/h 29% 0.00in /  0mm 0.0 W/m2
02:01 50.7 °F /  10.4 °C 19.6 °F /  -6.9 °C 30.37in /  1028.3hPa ENE 8.1mph /  13km/h 9.0mph /  14.5km/h 29% 0.00in /  0mm 0.0 W/m2
02:06 50.7 °F /  10.4 °C 19.6 °F /  -6.9 °C 30.37in /  1028.3hPa SSE 4.9mph /  7.9km/h 13.0mph /  20.9km/h 29% 0.00in /  0mm 0.0 W/m2
02:11 50.7 °F /  10.4 °C 19.6 °F /  -6.9 °C 30.36in /  1028hPa Calm   5.0mph /  8km/h 29% 0.00in /  0mm 0.0 W/m2
02:16 50.7 °F /  10.4 °C 19.6 °F /  -6.9 °C 30.36in /  1028hPa East 8.1mph /  13km/h 8.1mph /  13km/h 29% 0.00in /  0mm 0.0 W/m2
02:21 50.5 °F /  10.3 °C 19.4 °F /  -7 °C 30.36in /  1028hPa ESE 2.9mph /  4.7km/h 7.0mph /  11.3km/h 29% 0.00in /  0mm 0.0 W/m2
02:26 50.4 °F /  10.2 °C 19.2 °F /  -7.1 °C 30.36in /  1028hPa East 4.9mph /  7.9km/h 7.0mph /  11.3km/h 29% 0.00in /  0mm 0.0 W/m2
02:31 50.4 °F /  10.2 °C 19.2 °F /  -7.1 °C 30.36in /  1028hPa ESE 0.9mph /  1.4km/h 9.0mph /  14.5km/h 29% 0.00in /  0mm 0.0 W/m2
02:37 50.2 °F /  10.1 °C 19.9 °F /  -6.7 °C 30.36in /  1028hPa East 2.0mph /  3.2km/h 4.0mph /  6.4km/h 30% 0.00in /  0mm 0.0 W/m2
02:42 50.2 °F /  10.1 °C 19.9 °F /  -6.7 °C 30.36in /  1028hPa SE 4.9mph /  7.9km/h 6.0mph /  9.7km/h 30% 0.00in /  0mm 0.0 W/m2
02:47 49.8 °F /  9.9 °C 20.3 °F /  -6.5 °C 30.35in /  1027.7hPa ESE 6.0mph /  9.7km/h 10.0mph /  16.1km/h 31% 0.00in /  0mm 0.0 W/m2
02:57 49.8 °F /  9.9 °C 20.3 °F /  -6.5 °C 30.36in /  1028hPa SE 4.9mph /  7.9km/h 8.0mph /  12.9km/h 31% 0.00in /  0mm 0.0 W/m2
03:02 49.8 °F /  9.9 °C 21.2 °F /  -6 °C 30.35in /  1027.7hPa ESE 8.1mph /  13km/h 13.0mph /  20.9km/h 32% 0.00in /  0mm 0.0 W/m2
03:07 50.0 °F /  10 °C 22.1 °F /  -5.5 °C 30.36in /  1028hPa East 6.0mph /  9.7km/h 10.0mph /  16.1km/h 33% 0.00in /  0mm 0.0 W/m2
03:12 50.0 °F /  10 °C 22.1 °F /  -5.5 °C 30.36in /  1028hPa SE 4.0mph /  6.4km/h 6.0mph /  9.7km/h 33% 0.00in /  0mm 0.0 W/m2
03:18 50.0 °F /  10 °C 22.1 °F /  -5.5 °C 30.36in /  1028hPa SE 6.0mph /  9.7km/h 11.0mph /  17.7km/h 33% 0.00in /  0mm 0.0 W/m2
03:23 50.0 °F /  10 °C 22.1 °F /  -5.5 °C 30.35in /  1027.7hPa SE 8.9mph /  14.3km/h 10.0mph /  16.1km/h 33% 0.00in /  0mm 0.0 W/m2
03:28 49.8 °F /  9.9 °C 22.6 °F /  -5.2 °C 30.36in /  1028hPa South 8.1mph /  13km/h 9.0mph /  14.5km/h 34% 0.00in /  0mm 0.0 W/m2
03:33 49.6 °F /  9.8 °C 23.2 °F /  -4.9 °C 30.36in /  1028hPa East 4.9mph /  7.9km/h 14.0mph /  22.5km/h 35% 0.00in /  0mm 0.0 W/m2
03:38 49.6 °F /  9.8 °C 23.7 °F /  -4.6 °C 30.36in /  1028hPa ESE 4.9mph /  7.9km/h 8.0mph /  12.9km/h 36% 0.00in /  0mm 0.0 W/m2
03:43 49.5 °F /  9.7 °C 23.5 °F /  -4.7 °C 30.36in /  1028hPa ENE 4.0mph /  6.4km/h 11.0mph /  17.7km/h 36% 0.00in /  0mm 0.0 W/m2
03:48 49.3 °F /  9.6 °C 24.1 °F /  -4.4 °C 30.35in /  1027.7hPa South 4.0mph /  6.4km/h 8.0mph /  12.9km/h 37% 0.00in /  0mm 0.0 W/m2
03:53 49.1 °F /  9.5 °C 24.6 °F /  -4.1 °C 30.35in /  1027.7hPa ENE 6.0mph /  9.7km/h 6.0mph /  9.7km/h 38% 0.00in /  0mm 0.0 W/m2
03:59 48.9 °F /  9.4 °C 24.4 °F /  -4.2 °C 30.35in /  1027.7hPa ESE 2.9mph /  4.7km/h 9.0mph /  14.5km/h 38% 0.00in /  0mm 0.0 W/m2
04:09 48.7 °F /  9.3 °C 24.8 °F /  -4 °C 30.35in /  1027.7hPa ESE 2.9mph /  4.7km/h 8.0mph /  12.9km/h 39% 0.00in /  0mm 0.0 W/m2
04:14 48.6 °F /  9.2 °C 24.8 °F /  -4 °C 30.35in /  1027.7hPa SE 2.0mph /  3.2km/h 6.0mph /  9.7km/h 39% 0.00in /  0mm 0.0 W/m2
04:19 48.6 °F /  9.2 °C 25.3 °F /  -3.7 °C 30.34in /  1027.3hPa East 0.9mph /  1.4km/h 9.0mph /  14.5km/h 40% 0.00in /  0mm 0.0 W/m2
04:24 48.4 °F /  9.1 °C 25.2 °F /  -3.8 °C 30.34in /  1027.3hPa SE 15.0mph /  24.1km/h 15.0mph /  24.1km/h 40% 0.00in /  0mm 0.0 W/m2
04:29 48.4 °F /  9.1 °C 25.7 °F /  -3.5 °C 30.34in /  1027.3hPa ESE 4.0mph /  6.4km/h 15.0mph /  24.1km/h 41% 0.00in /  0mm 0.0 W/m2
04:34 48.4 °F /  9.1 °C 25.7 °F /  -3.5 °C 30.34in /  1027.3hPa SE 4.0mph /  6.4km/h 8.0mph /  12.9km/h 41% 0.00in /  0mm 0.0 W/m2
04:39 48.4 °F /  9.1 °C 26.4 °F /  -3.1 °C 30.34in /  1027.3hPa ESE 0.9mph /  1.4km/h 13.0mph /  20.9km/h 42% 0.00in /  0mm 0.0 W/m2
04:45 48.4 °F /  9.1 °C 26.4 °F /  -3.1 °C 30.34in /  1027.3hPa SSE 2.9mph /  4.7km/h 6.0mph /  9.7km/h 42% 0.00in /  0mm 0.0 W/m2
04:50 48.2 °F /  9 °C 26.2 °F /  -3.2 °C 30.34in /  1027.3hPa Calm   5.0mph /  8km/h 42% 0.00in /  0mm 0.0 W/m2
04:55 48.0 °F /  8.9 °C 26.6 °F /  -3 °C 30.33in /  1027hPa SE 4.0mph /  6.4km/h 7.0mph /  11.3km/h 43% 0.00in /  0mm 0.0 W/m2
05:00 48.0 °F /  8.9 °C 26.6 °F /  -3 °C 30.34in /  1027.3hPa SE 2.0mph /  3.2km/h 8.0mph /  12.9km/h 43% 0.00in /  0mm 0.0 W/m2
05:05 47.8 °F /  8.8 °C 26.4 °F /  -3.1 °C 30.34in /  1027.3hPa ESE 4.0mph /  6.4km/h 6.0mph /  9.7km/h 43% 0.00in /  0mm 0.0 W/m2
05:10 47.8 °F /  8.8 °C 26.4 °F /  -3.1 °C 30.34in /  1027.3hPa SE 2.9mph /  4.7km/h 8.0mph /  12.9km/h 43% 0.00in /  0mm 0.0 W/m2
05:16 47.7 °F /  8.7 °C 26.2 °F /  -3.2 °C 30.35in /  1027.7hPa ESE 6.0mph /  9.7km/h 8.0mph /  12.9km/h 43% 0.00in /  0mm 0.0 W/m2
05:26 47.7 °F /  8.7 °C 26.2 °F /  -3.2 °C 30.35in /  1027.7hPa ENE 2.0mph /  3.2km/h 4.0mph /  6.4km/h 43% 0.00in /  0mm 0.0 W/m2
05:31 47.7 °F /  8.7 °C 26.8 °F /  -2.9 °C 30.35in /  1027.7hPa North 2.9mph /  4.7km/h 8.0mph /  12.9km/h 44% 0.00in /  0mm 0.0 W/m2
05:37 47.5 °F /  8.6 °C 26.6 °F /  -3 °C 30.36in /  1028hPa NE 2.9mph /  4.7km/h 5.0mph /  8km/h 44% 0.00in /  0mm 0.0 W/m2
05:47 47.1 °F /  8.4 °C 27.3 °F /  -2.6 °C 30.35in /  1027.7hPa NE 4.9mph /  7.9km/h 5.0mph /  8km/h 46% 0.00in /  0mm 0.0 W/m2
05:52 47.1 °F /  8.4 °C 27.3 °F /  -2.6 °C 30.36in /  1028hPa Calm   2.0mph /  3.2km/h 46% 0.00in /  0mm 0.0 W/m2
05:57 46.9 °F /  8.3 °C 27.7 °F /  -2.4 °C 30.36in /  1028hPa NNE 4.9mph /  7.9km/h 6.0mph /  9.7km/h 47% 0.00in /  0mm 0.0 W/m2
06:02 46.8 °F /  8.2 °C 27.7 °F /  -2.4 °C 30.35in /  1027.7hPa East 2.0mph /  3.2km/h 4.0mph /  6.4km/h 47% 0.00in /  0mm 0.0 W/m2
06:07 46.8 °F /  8.2 °C 27.1 °F /  -2.7 °C 30.35in /  1027.7hPa North 0.9mph /  1.4km/h 8.0mph /  12.9km/h 46% 0.00in /  0mm 5.0 W/m2
06:12 46.8 °F /  8.2 °C 26.6 °F /  -3 °C 30.36in /  1028hPa SW 2.0mph /  3.2km/h 7.0mph /  11.3km/h 45% 0.00in /  0mm 7.0 W/m2
06:17 47.1 °F /  8.4 °C 26.8 °F /  -2.9 °C 30.36in /  1028hPa SE 2.9mph /  4.7km/h 12.0mph /  19.3km/h 45% 0.00in /  0mm 9.0 W/m2
06:28 47.5 °F /  8.6 °C 27.1 °F /  -2.7 °C 30.36in /  1028hPa ESE 2.9mph /  4.7km/h 14.0mph /  22.5km/h 45% 0.00in /  0mm 12.0 W/m2
06:33 47.7 °F /  8.7 °C 27.9 °F /  -2.3 °C 30.36in /  1028hPa SSE 4.0mph /  6.4km/h 15.0mph /  24.1km/h 46% 0.00in /  0mm 14.0 W/m2
06:38 47.5 °F /  8.6 °C 28.2 °F /  -2.1 °C 30.36in /  1028hPa East 2.9mph /  4.7km/h 10.0mph /  16.1km/h 47% 0.00in /  0mm 16.0 W/m2
06:43 47.5 °F /  8.6 °C 27.7 °F /  -2.4 °C 30.37in /  1028.3hPa ESE 6.0mph /  9.7km/h 12.0mph /  19.3km/h 46% 0.00in /  0mm 16.0 W/m2
06:48 47.5 °F /  8.6 °C 27.7 °F /  -2.4 °C 30.37in /  1028.3hPa SE 4.9mph /  7.9km/h 11.0mph /  17.7km/h 46% 0.00in /  0mm 18.0 W/m2
06:53 47.7 °F /  8.7 °C 28.4 °F /  -2 °C 30.37in /  1028.3hPa South 10.1mph /  16.3km/h 10.1mph /  16.3km/h 47% 0.00in /  0mm 18.0 W/m2
06:58 47.7 °F /  8.7 °C 27.9 °F /  -2.3 °C 30.38in /  1028.7hPa ENE 8.1mph /  13km/h 14.0mph /  22.5km/h 46% 0.00in /  0mm 19.0 W/m2
07:03 47.8 °F /  8.8 °C 28.0 °F /  -2.2 °C 30.38in /  1028.7hPa SSE 2.9mph /  4.7km/h 4.0mph /  6.4km/h 46% 0.00in /  0mm 21.0 W/m2
07:08 48.0 °F /  8.9 °C 28.2 °F /  -2.1 °C 30.38in /  1028.7hPa SE 4.9mph /  7.9km/h 7.0mph /  11.3km/h 46% 0.00in /  0mm 21.0 W/m2
07:14 48.0 °F /  8.9 °C 28.2 °F /  -2.1 °C 30.38in /  1028.7hPa ESE 10.1mph /  16.3km/h 12.0mph /  19.3km/h 46% 0.00in /  0mm 121.0 W/m2
07:19 48.6 °F /  9.2 °C 27.7 °F /  -2.4 °C 30.38in /  1028.7hPa Calm   7.0mph /  11.3km/h 44% 0.00in /  0mm 292.0 W/m2
07:24 48.7 °F /  9.3 °C 28.9 °F /  -1.7 °C 30.38in /  1028.7hPa SW 2.9mph /  4.7km/h 3.0mph /  4.8km/h 46% 0.00in /  0mm 320.0 W/m2
07:29 48.9 °F /  9.4 °C 28.6 °F /  -1.9 °C 30.38in /  1028.7hPa South 0.9mph /  1.4km/h 2.0mph /  3.2km/h 45% 0.00in /  0mm 338.0 W/m2
07:35 49.5 °F /  9.7 °C 27.9 °F /  -2.3 °C 30.38in /  1028.7hPa SSE 2.0mph /  3.2km/h 4.0mph /  6.4km/h 43% 0.00in /  0mm 367.0 W/m2
07:40 49.8 °F /  9.9 °C 28.2 °F /  -2.1 °C 30.38in /  1028.7hPa Calm   1.0mph /  1.6km/h 43% 0.00in /  0mm 383.0 W/m2
07:45 50.5 °F /  10.3 °C 28.9 °F /  -1.7 °C 30.38in /  1028.7hPa NE 4.9mph /  7.9km/h 8.0mph /  12.9km/h 43% 0.00in /  0mm 406.0 W/m2
07:50 51.1 °F /  10.6 °C 28.8 °F /  -1.8 °C 30.38in /  1028.7hPa ESE 2.0mph /  3.2km/h 4.0mph /  6.4km/h 42% 0.00in /  0mm 429.0 W/m2
07:55 51.4 °F /  10.8 °C 29.1 °F /  -1.6 °C 30.38in /  1028.7hPa NW 0.9mph /  1.4km/h 2.0mph /  3.2km/h 42% 0.00in /  0mm 450.0 W/m2
08:00 52.5 °F /  11.4 °C 28.9 °F /  -1.7 °C 30.38in /  1028.7hPa WNW 2.0mph /  3.2km/h 3.0mph /  4.8km/h 40% 0.00in /  0mm 468.0 W/m2
08:06 53.1 °F /  11.7 °C 28.8 °F /  -1.8 °C 30.38in /  1028.7hPa ESE 2.0mph /  3.2km/h 6.0mph /  9.7km/h 39% 0.00in /  0mm 489.0 W/m2
08:11 53.2 °F /  11.8 °C 28.2 °F /  -2.1 °C 30.38in /  1028.7hPa East 0.9mph /  1.4km/h 4.0mph /  6.4km/h 38% 0.00in /  0mm 510.0 W/m2
08:16 53.2 °F /  11.8 °C 28.9 °F /  -1.7 °C 30.38in /  1028.7hPa SW 2.0mph /  3.2km/h 6.0mph /  9.7km/h 39% 0.00in /  0mm 531.0 W/m2
08:21 53.8 °F /  12.1 °C 28.8 °F /  -1.8 °C 30.37in /  1028.3hPa SE 0.9mph /  1.4km/h 2.0mph /  3.2km/h 38% 0.00in /  0mm 552.0 W/m2
08:26 54.1 °F /  12.3 °C 27.1 °F /  -2.7 °C 30.38in /  1028.7hPa NNE 0.9mph /  1.4km/h 5.0mph /  8km/h 35% 0.00in /  0mm 568.0 W/m2
08:31 54.9 °F /  12.7 °C 29.1 °F /  -1.6 °C 30.37in /  1028.3hPa NNW 2.0mph /  3.2km/h 2.0mph /  3.2km/h 37% 0.00in /  0mm 591.0 W/m2
08:36 55.2 °F /  12.9 °C 28.0 °F /  -2.2 °C 30.37in /  1028.3hPa SSE 0.9mph /  1.4km/h 4.0mph /  6.4km/h 35% 0.00in /  0mm 608.0 W/m2
08:42 55.2 °F /  12.9 °C 28.0 °F /  -2.2 °C 30.38in /  1028.7hPa SSW 2.9mph /  4.7km/h 7.0mph /  11.3km/h 35% 0.00in /  0mm 626.0 W/m2
08:47 55.4 °F /  13 °C 28.2 °F /  -2.1 °C 30.38in /  1028.7hPa South 0.9mph /  1.4km/h 5.0mph /  8km/h 35% 0.00in /  0mm 647.0 W/m2
08:52 55.8 °F /  13.2 °C 28.6 °F /  -1.9 °C 30.38in /  1028.7hPa South 4.9mph /  7.9km/h 5.0mph /  8km/h 35% 0.00in /  0mm 664.0 W/m2
08:57 56.1 °F /  13.4 °C 28.0 °F /  -2.2 °C 30.38in /  1028.7hPa Calm   3.0mph /  4.8km/h 34% 0.00in /  0mm 684.0 W/m2
09:02 56.8 °F /  13.8 °C 28.0 °F /  -2.2 °C 30.38in /  1028.7hPa ESE 4.0mph /  6.4km/h 6.0mph /  9.7km/h 33% 0.00in /  0mm 700.0 W/m2
09:07 57.6 °F /  14.2 °C 27.9 °F /  -2.3 °C 30.38in /  1028.7hPa ENE 4.9mph /  7.9km/h 7.0mph /  11.3km/h 32% 0.00in /  0mm 717.0 W/m2
09:14 58.3 °F /  14.6 °C 28.6 °F /  -1.9 °C 30.38in /  1028.7hPa ENE 2.0mph /  3.2km/h 5.0mph /  8km/h 32% 0.00in /  0mm 742.0 W/m2
09:19 58.5 °F /  14.7 °C 27.1 °F /  -2.7 °C 30.38in /  1028.7hPa SE 0.9mph /  1.4km/h 6.0mph /  9.7km/h 30% 0.00in /  0mm 754.0 W/m2
09:25 59.2 °F /  15.1 °C 28.6 °F /  -1.9 °C 30.38in /  1028.7hPa SSE 2.0mph /  3.2km/h 7.0mph /  11.3km/h 31% 0.00in /  0mm 779.0 W/m2
09:30 59.4 °F /  15.2 °C 27.9 °F /  -2.3 °C 30.38in /  1028.7hPa WSW 2.0mph /  3.2km/h 5.0mph /  8km/h 30% 0.00in /  0mm 798.0 W/m2
09:36 59.5 °F /  15.3 °C 27.3 °F /  -2.6 °C 30.38in /  1028.7hPa SE 2.9mph /  4.7km/h 4.0mph /  6.4km/h 29% 0.00in /  0mm 809.0 W/m2
09:41 60.3 °F /  15.7 °C 27.0 °F /  -2.8 °C 30.38in /  1028.7hPa East 0.9mph /  1.4km/h 8.0mph /  12.9km/h 28% 0.00in /  0mm 828.0 W/m2
09:46 60.6 °F /  15.9 °C 26.4 °F /  -3.1 °C 30.38in /  1028.7hPa SE 0.9mph /  1.4km/h 10.0mph /  16.1km/h 27% 0.00in /  0mm 842.0 W/m2
09:52 61.0 °F /  16.1 °C 26.8 °F /  -2.9 °C 30.39in /  1029hPa SE 8.1mph /  13km/h 9.0mph /  14.5km/h 27% 0.00in /  0mm 860.0 W/m2
09:57 61.3 °F /  16.3 °C 27.1 °F /  -2.7 °C 30.38in /  1028.7hPa Calm   6.0mph /  9.7km/h 27% 0.00in /  0mm 879.0 W/m2
10:02 61.7 °F /  16.5 °C 24.6 °F /  -4.1 °C 30.38in /  1028.7hPa ESE 2.9mph /  4.7km/h 12.0mph /  19.3km/h 24% 0.00in /  0mm 888.0 W/m2
10:08 62.1 °F /  16.7 °C 24.8 °F /  -4 °C 30.38in /  1028.7hPa SSE 4.0mph /  6.4km/h 7.0mph /  11.3km/h 24% 0.00in /  0mm 907.0 W/m2
10:13 62.2 °F /  16.8 °C 25.0 °F /  -3.9 °C 30.38in /  1028.7hPa SSE 4.0mph /  6.4km/h 8.0mph /  12.9km/h 24% 0.00in /  0mm 916.0 W/m2
10:23 62.8 °F /  17.1 °C 26.4 °F /  -3.1 °C 30.38in /  1028.7hPa ESE 2.9mph /  4.7km/h 9.0mph /  14.5km/h 25% 0.00in /  0mm 944.0 W/m2
10:28 62.8 °F /  17.1 °C 24.4 °F /  -4.2 °C 30.38in /  1028.7hPa NNE 2.0mph /  3.2km/h 12.0mph /  19.3km/h 23% 0.00in /  0mm 953.0 W/m2
10:34 63.3 °F /  17.4 °C 25.9 °F /  -3.4 °C 30.38in /  1028.7hPa East 2.9mph /  4.7km/h 8.0mph /  12.9km/h 24% 0.00in /  0mm 972.0 W/m2
10:39 64.2 °F /  17.9 °C 24.6 °F /  -4.1 °C 30.38in /  1028.7hPa NE 0.9mph /  1.4km/h 5.0mph /  8km/h 22% 0.00in /  0mm 979.0 W/m2
10:44 64.6 °F /  18.1 °C 22.6 °F /  -5.2 °C 30.38in /  1028.7hPa SE 4.0mph /  6.4km/h 7.0mph /  11.3km/h 20% 0.00in /  0mm 986.0 W/m2
10:50 64.8 °F /  18.2 °C 26.1 °F /  -3.3 °C 30.38in /  1028.7hPa East 4.0mph /  6.4km/h 9.0mph /  14.5km/h 23% 0.00in /  0mm 998.0 W/m2
10:55 65.1 °F /  18.4 °C 21.7 °F /  -5.7 °C 30.38in /  1028.7hPa ESE 6.0mph /  9.7km/h 14.0mph /  22.5km/h 19% 0.00in /  0mm 1009.0 W/m2
11:01 65.5 °F /  18.6 °C 23.4 °F /  -4.8 °C 30.38in /  1028.7hPa SE 4.0mph /  6.4km/h 10.0mph /  16.1km/h 20% 0.00in /  0mm 1023.0 W/m2
11:07 66.0 °F /  18.9 °C 26.1 °F /  -3.3 °C 30.38in /  1028.7hPa ENE 2.9mph /  4.7km/h 11.0mph /  17.7km/h 22% 0.00in /  0mm 1025.0 W/m2
11:12 66.4 °F /  19.1 °C 24.1 °F /  -4.4 °C 30.37in /  1028.3hPa ESE 6.9mph /  11.1km/h 7.0mph /  11.3km/h 20% 0.00in /  0mm 1037.0 W/m2
11:17 66.4 °F /  19.1 °C 22.8 °F /  -5.1 °C 30.37in /  1028.3hPa SE 4.0mph /  6.4km/h 11.0mph /  17.7km/h 19% 0.00in /  0mm 1042.0 W/m2
11:23 66.6 °F /  19.2 °C 25.3 °F /  -3.7 °C 30.37in /  1028.3hPa ESE 2.9mph /  4.7km/h 8.0mph /  12.9km/h 21% 0.00in /  0mm 1049.0 W/m2
11:28 66.9 °F /  19.4 °C 24.6 °F /  -4.1 °C 30.37in /  1028.3hPa ENE 4.0mph /  6.4km/h 10.0mph /  16.1km/h 20% 0.00in /  0mm 1056.0 W/m2
11:39 67.6 °F /  19.8 °C 25.2 °F /  -3.8 °C 30.37in /  1028.3hPa East 2.0mph /  3.2km/h 9.0mph /  14.5km/h 20% 0.00in /  0mm 1067.0 W/m2
11:44 68.0 °F /  20 °C 25.3 °F /  -3.7 °C 30.38in /  1028.7hPa ESE 2.0mph /  3.2km/h 10.0mph /  16.1km/h 20% 0.00in /  0mm 1074.0 W/m2
11:49 68.4 °F /  20.2 °C 23.2 °F /  -4.9 °C 30.38in /  1028.7hPa ENE 2.9mph /  4.7km/h 10.0mph /  16.1km/h 18% 0.00in /  0mm 1078.0 W/m2
11:54 68.0 °F /  20 °C 22.8 °F /  -5.1 °C 30.38in /  1028.7hPa ENE 12.1mph /  19.5km/h 17.0mph /  27.4km/h 18% 0.00in /  0mm 1083.0 W/m2
11:59 68.0 °F /  20 °C 24.3 °F /  -4.3 °C 30.38in /  1028.7hPa ESE 8.9mph /  14.3km/h 14.0mph /  22.5km/h 19% 0.00in /  0mm 1085.0 W/m2
12:04 67.8 °F /  19.9 °C 25.3 °F /  -3.7 °C 30.37in /  1028.3hPa SE 10.1mph /  16.3km/h 16.0mph /  25.7km/h 20% 0.00in /  0mm 1086.0 W/m2
12:09 67.6 °F /  19.8 °C 25.2 °F /  -3.8 °C 30.37in /  1028.3hPa East 2.0mph /  3.2km/h 9.0mph /  14.5km/h 20% 0.00in /  0mm 1086.0 W/m2
12:14 68.2 °F /  20.1 °C 24.3 °F /  -4.3 °C 30.37in /  1028.3hPa ESE 6.0mph /  9.7km/h 7.0mph /  11.3km/h 19% 0.00in /  0mm 1088.0 W/m2
12:20 68.7 °F /  20.4 °C 24.8 °F /  -4 °C 30.37in /  1028.3hPa SE 6.0mph /  9.7km/h 14.0mph /  22.5km/h 19% 0.00in /  0mm 1093.0 W/m2
12:25 69.6 °F /  20.9 °C 22.8 °F /  -5.1 °C 30.37in /  1028.3hPa SE 0.9mph /  1.4km/h 10.0mph /  16.1km/h 17% 0.00in /  0mm 1092.0 W/m2
12:30 70.0 °F /  21.1 °C 24.4 °F /  -4.2 °C 30.36in /  1028hPa SSE 0.9mph /  1.4km/h 13.0mph /  20.9km/h 18% 0.00in /  0mm 1095.0 W/m2
12:36 70.0 °F /  21.1 °C 24.4 °F /  -4.2 °C 30.36in /  1028hPa NE 4.9mph /  7.9km/h 5.0mph /  8km/h 18% 0.00in /  0mm 1097.0 W/m2
12:41 70.3 °F /  21.3 °C 23.5 °F /  -4.7 °C 30.36in /  1028hPa SSE 2.0mph /  3.2km/h 8.0mph /  12.9km/h 17% 0.00in /  0mm 1090.0 W/m2
12:46 70.9 °F /  21.6 °C 23.9 °F /  -4.5 °C 30.36in /  1028hPa ESE 2.9mph /  4.7km/h 11.0mph /  17.7km/h 17% 0.00in /  0mm 1088.0 W/m2
12:51 71.2 °F /  21.8 °C 22.8 °F /  -5.1 °C 30.36in /  1028hPa East 4.9mph /  7.9km/h 11.0mph /  17.7km/h 16% 0.00in /  0mm 1092.0 W/m2
12:56 71.1 °F /  21.7 °C 22.6 °F /  -5.2 °C 30.36in /  1028hPa SSE 2.0mph /  3.2km/h 8.0mph /  12.9km/h 16% 0.00in /  0mm 1092.0 W/m2
13:02 71.2 °F /  21.8 °C 22.8 °F /  -5.1 °C 30.36in /  1028hPa ESE 4.9mph /  7.9km/h 13.0mph /  20.9km/h 16% 0.00in /  0mm 1081.0 W/m2
13:07 71.2 °F /  21.8 °C 22.8 °F /  -5.1 °C 30.35in /  1027.7hPa ESE 4.0mph /  6.4km/h 8.0mph /  12.9km/h 16% 0.00in /  0mm 1085.0 W/m2
13:12 71.4 °F /  21.9 °C 22.8 °F /  -5.1 °C 30.35in /  1027.7hPa East 2.0mph /  3.2km/h 10.0mph /  16.1km/h 16% 0.00in /  0mm 1081.0 W/m2
13:18 71.8 °F /  22.1 °C 23.2 °F /  -4.9 °C 30.35in /  1027.7hPa NE 8.9mph /  14.3km/h 13.0mph /  20.9km/h 16% 0.00in /  0mm 1072.0 W/m2
13:23 72.0 °F /  22.2 °C 23.4 °F /  -4.8 °C 30.35in /  1027.7hPa ENE 4.0mph /  6.4km/h 10.0mph /  16.1km/h 16% 0.00in /  0mm 1071.0 W/m2
13:28 72.3 °F /  22.4 °C 23.5 °F /  -4.7 °C 30.35in /  1027.7hPa ENE 4.9mph /  7.9km/h 9.0mph /  14.5km/h 16% 0.00in /  0mm 1063.0 W/m2
13:33 72.0 °F /  22.2 °C 23.4 °F /  -4.8 °C 30.35in /  1027.7hPa ESE 6.0mph /  9.7km/h 11.0mph /  17.7km/h 16% 0.00in /  0mm 1056.0 W/m2
13:39 72.7 °F /  22.6 °C 23.9 °F /  -4.5 °C 30.34in /  1027.3hPa ENE 2.9mph /  4.7km/h 7.0mph /  11.3km/h 16% 0.00in /  0mm 1049.0 W/m2
13:44 73.2 °F /  22.9 °C 22.8 °F /  -5.1 °C 30.34in /  1027.3hPa NE 2.9mph /  4.7km/h 14.0mph /  22.5km/h 15% 0.00in /  0mm 1039.0 W/m2
13:50 72.9 °F /  22.7 °C 24.1 °F /  -4.4 °C 30.34in /  1027.3hPa ENE 8.1mph /  13km/h 8.1mph /  13km/h 16% 0.00in /  0mm 1032.0 W/m2
13:55 72.9 °F /  22.7 °C 22.5 °F /  -5.3 °C 30.34in /  1027.3hPa NE 4.9mph /  7.9km/h 9.0mph /  14.5km/h 15% 0.00in /  0mm 1021.0 W/m2
14:00 73.4 °F /  23 °C 23.0 °F /  -5 °C 30.34in /  1027.3hPa NNE 4.0mph /  6.4km/h 11.0mph /  17.7km/h 15% 0.00in /  0mm 1016.0 W/m2
14:06 73.2 °F /  22.9 °C 21.2 °F /  -6 °C 30.34in /  1027.3hPa ESE 6.9mph /  11.1km/h 14.0mph /  22.5km/h 14% 0.00in /  0mm 1004.0 W/m2
14:17 73.9 °F /  23.3 °C 21.7 °F /  -5.7 °C 30.34in /  1027.3hPa East 2.9mph /  4.7km/h 11.0mph /  17.7km/h 14% 0.00in /  0mm 986.0 W/m2
14:23 73.8 °F /  23.2 °C 21.6 °F /  -5.8 °C 30.33in /  1027hPa NNE 6.9mph /  11.1km/h 12.0mph /  19.3km/h 14% 0.00in /  0mm 977.0 W/m2
14:28 73.9 °F /  23.3 °C 21.7 °F /  -5.7 °C 30.33in /  1027hPa Calm   11.0mph /  17.7km/h 14% 0.00in /  0mm 967.0 W/m2
14:33 74.3 °F /  23.5 °C 20.3 °F /  -6.5 °C 30.32in /  1026.6hPa North 4.9mph /  7.9km/h 12.0mph /  19.3km/h 13% 0.00in /  0mm 954.0 W/m2
14:38 74.7 °F /  23.7 °C 20.5 °F /  -6.4 °C 30.33in /  1027hPa NNE 2.9mph /  4.7km/h 12.0mph /  19.3km/h 13% 0.00in /  0mm 949.0 W/m2
14:43 74.5 °F /  23.6 °C 18.5 °F /  -7.5 °C 30.32in /  1026.6hPa NE 4.0mph /  6.4km/h 9.0mph /  14.5km/h 12% 0.00in /  0mm 928.0 W/m2
14:49 74.5 °F /  23.6 °C 18.5 °F /  -7.5 °C 30.32in /  1026.6hPa ENE 4.0mph /  6.4km/h 8.0mph /  12.9km/h 12% 0.00in /  0mm 919.0 W/m2
14:54 74.5 °F /  23.6 °C 18.5 °F /  -7.5 °C 30.32in /  1026.6hPa ESE 6.9mph /  11.1km/h 8.0mph /  12.9km/h 12% 0.00in /  0mm 905.0 W/m2
14:59 74.7 °F /  23.7 °C 18.7 °F /  -7.4 °C 30.32in /  1026.6hPa East 4.0mph /  6.4km/h 8.0mph /  12.9km/h 12% 0.00in /  0mm 896.0 W/m2
15:05 74.8 °F /  23.8 °C 20.7 °F /  -6.3 °C 30.32in /  1026.6hPa ESE 8.9mph /  14.3km/h 12.0mph /  19.3km/h 13% 0.00in /  0mm 875.0 W/m2
15:10 75.0 °F /  23.9 °C 19.0 °F /  -7.2 °C 30.31in /  1026.3hPa East 4.9mph /  7.9km/h 11.0mph /  17.7km/h 12% 0.00in /  0mm 863.0 W/m2
15:15 75.0 °F /  23.9 °C 19.0 °F /  -7.2 °C 30.31in /  1026.3hPa ESE 4.9mph /  7.9km/h 5.0mph /  8km/h 12% 0.00in /  0mm 849.0 W/m2
15:20 75.4 °F /  24.1 °C 19.2 °F /  -7.1 °C 30.31in /  1026.3hPa SSE 4.0mph /  6.4km/h 4.0mph /  6.4km/h 12% 0.00in /  0mm 831.0 W/m2
15:25 75.9 °F /  24.4 °C 17.6 °F /  -8 °C 30.31in /  1026.3hPa SSE 4.9mph /  7.9km/h 10.0mph /  16.1km/h 11% 0.00in /  0mm 807.0 W/m2
15:30 75.9 °F /  24.4 °C 17.6 °F /  -8 °C 30.31in /  1026.3hPa NNE 4.0mph /  6.4km/h 8.0mph /  12.9km/h 11% 0.00in /  0mm 800.0 W/m2
15:35 75.6 °F /  24.2 °C 19.4 °F /  -7 °C 30.31in /  1026.3hPa SSE 2.0mph /  3.2km/h 11.0mph /  17.7km/h 12% 0.00in /  0mm 780.0 W/m2
15:40 75.6 °F /  24.2 °C 17.4 °F /  -8.1 °C 30.31in /  1026.3hPa SSE 4.0mph /  6.4km/h 11.0mph /  17.7km/h 11% 0.00in /  0mm 770.0 W/m2
15:45 75.6 °F /  24.2 °C 17.4 °F /  -8.1 °C 30.31in /  1026.3hPa Calm   4.0mph /  6.4km/h 11% 0.00in /  0mm 754.0 W/m2
15:50 75.9 °F /  24.4 °C 15.4 °F /  -9.2 °C 30.30in /  1026hPa NE 6.9mph /  11.1km/h 10.0mph /  16.1km/h 10% 0.00in /  0mm 737.0 W/m2
15:56 76.3 °F /  24.6 °C 15.6 °F /  -9.1 °C 30.30in /  1026hPa NNW 2.0mph /  3.2km/h 5.0mph /  8km/h 10% 0.00in /  0mm 719.0 W/m2
16:01 76.8 °F /  24.9 °C 16.2 °F /  -8.8 °C 30.30in /  1026hPa ENE 4.9mph /  7.9km/h 6.0mph /  9.7km/h 10% 0.00in /  0mm 705.0 W/m2
16:07 76.5 °F /  24.7 °C 15.8 °F /  -9 °C 30.30in /  1026hPa SE 2.9mph /  4.7km/h 12.0mph /  19.3km/h 10% 0.00in /  0mm 680.0 W/m2
16:13 75.9 °F /  24.4 °C 15.4 °F /  -9.2 °C 30.30in /  1026hPa Calm   6.0mph /  9.7km/h 10% 0.00in /  0mm 659.0 W/m2
16:18 75.9 °F /  24.4 °C 15.4 °F /  -9.2 °C 30.29in /  1025.6hPa NE 4.9mph /  7.9km/h 6.0mph /  9.7km/h 10% 0.00in /  0mm 642.0 W/m2
16:23 75.7 °F /  24.3 °C 15.3 °F /  -9.3 °C 30.30in /  1026hPa NE 4.0mph /  6.4km/h 9.0mph /  14.5km/h 10% 0.00in /  0mm 626.0 W/m2
16:29 75.9 °F /  24.4 °C 15.4 °F /  -9.2 °C 30.29in /  1025.6hPa WSW 0.9mph /  1.4km/h 3.0mph /  4.8km/h 10% 0.00in /  0mm 601.0 W/m2
16:34 75.9 °F /  24.4 °C 15.4 °F /  -9.2 °C 30.30in /  1026hPa NE 2.0mph /  3.2km/h 10.0mph /  16.1km/h 10% 0.00in /  0mm 582.0 W/m2
16:39 75.9 °F /  24.4 °C 13.1 °F /  -10.5 °C 30.29in /  1025.6hPa NE 4.0mph /  6.4km/h 8.0mph /  12.9km/h 9% 0.00in /  0mm 564.0 W/m2
16:44 75.7 °F /  24.3 °C 15.3 °F /  -9.3 °C 30.29in /  1025.6hPa NNE 4.0mph /  6.4km/h 10.0mph /  16.1km/h 10% 0.00in /  0mm 547.0 W/m2
16:49 75.9 °F /  24.4 °C 15.4 °F /  -9.2 °C 30.30in /  1026hPa ENE 2.9mph /  4.7km/h 5.0mph /  8km/h 10% 0.00in /  0mm 526.0 W/m2
16:55 76.5 °F /  24.7 °C 15.8 °F /  -9 °C 30.30in /  1026hPa SE 0.9mph /  1.4km/h 6.0mph /  9.7km/h 10% 0.00in /  0mm 499.0 W/m2
17:00 76.3 °F /  24.6 °C 15.6 °F /  -9.1 °C 30.30in /  1026hPa South 2.9mph /  4.7km/h 8.0mph /  12.9km/h 10% 0.00in /  0mm 478.0 W/m2
17:06 75.9 °F /  24.4 °C 15.4 °F /  -9.2 °C 30.30in /  1026hPa ESE 4.0mph /  6.4km/h 11.0mph /  17.7km/h 10% 0.00in /  0mm 457.0 W/m2
17:11 75.4 °F /  24.1 °C 15.1 °F /  -9.4 °C 30.30in /  1026hPa East 0.9mph /  1.4km/h 7.0mph /  11.3km/h 10% 0.00in /  0mm 439.0 W/m2
17:16 75.2 °F /  24 °C 14.9 °F /  -9.5 °C 30.30in /  1026hPa SE 4.0mph /  6.4km/h 5.0mph /  8km/h 10% 0.00in /  0mm 417.0 W/m2
17:21 75.4 °F /  24.1 °C 15.1 °F /  -9.4 °C 30.30in /  1026hPa East 2.0mph /  3.2km/h 6.0mph /  9.7km/h 10% 0.00in /  0mm 401.0 W/m2
17:26 75.6 °F /  24.2 °C 15.1 °F /  -9.4 °C 30.30in /  1026hPa NNE 4.9mph /  7.9km/h 5.0mph /  8km/h 10% 0.00in /  0mm 380.0 W/m2
17:31 75.4 °F /  24.1 °C 17.2 °F /  -8.2 °C 30.30in /  1026hPa ESE 8.1mph /  13km/h 10.0mph /  16.1km/h 11% 0.00in /  0mm 359.0 W/m2
17:36 75.4 °F /  24.1 °C 17.2 °F /  -8.2 °C 30.30in /  1026hPa ESE 0.9mph /  1.4km/h 4.0mph /  6.4km/h 11% 0.00in /  0mm 336.0 W/m2
17:41 75.4 °F /  24.1 °C 17.2 °F /  -8.2 °C 30.30in /  1026hPa ENE 0.9mph /  1.4km/h 9.0mph /  14.5km/h 11% 0.00in /  0mm 316.0 W/m2
17:47 75.6 °F /  24.2 °C 17.4 °F /  -8.1 °C 30.30in /  1026hPa Calm   6.0mph /  9.7km/h 11% 0.00in /  0mm 295.0 W/m2
17:52 75.6 °F /  24.2 °C 17.4 °F /  -8.1 °C 30.30in /  1026hPa ESE 0.9mph /  1.4km/h 6.0mph /  9.7km/h 11% 0.00in /  0mm 274.0 W/m2
17:57 75.4 °F /  24.1 °C 15.1 °F /  -9.4 °C 30.30in /  1026hPa ENE 2.0mph /  3.2km/h 4.0mph /  6.4km/h 10% 0.00in /  0mm 253.0 W/m2
18:02 75.6 °F /  24.2 °C 17.4 °F /  -8.1 °C 30.30in /  1026hPa East 0.9mph /  1.4km/h 7.0mph /  11.3km/h 11% 0.00in /  0mm 232.0 W/m2
18:07 75.2 °F /  24 °C 17.1 °F /  -8.3 °C 30.30in /  1026hPa ENE 2.9mph /  4.7km/h 7.0mph /  11.3km/h 11% 0.00in /  0mm 213.0 W/m2
18:12 74.7 °F /  23.7 °C 18.7 °F /  -7.4 °C 30.31in /  1026.3hPa NNE 2.9mph /  4.7km/h 6.0mph /  9.7km/h 12% 0.00in /  0mm 190.0 W/m2
18:17 74.1 °F /  23.4 °C 20.1 °F /  -6.6 °C 30.31in /  1026.3hPa ENE 2.0mph /  3.2km/h 5.0mph /  8km/h 13% 0.00in /  0mm 69.0 W/m2
18:23 73.6 °F /  23.1 °C 19.8 °F /  -6.8 °C 30.31in /  1026.3hPa ENE 2.9mph /  4.7km/h 7.0mph /  11.3km/h 13% 0.00in /  0mm 32.0 W/m2
18:28 73.0 °F /  22.8 °C 19.2 °F /  -7.1 °C 30.31in /  1026.3hPa Calm   6.0mph /  9.7km/h 13% 0.00in /  0mm 33.0 W/m2
18:33 72.9 °F /  22.7 °C 19.2 °F /  -7.1 °C 30.31in /  1026.3hPa NE 2.9mph /  4.7km/h 5.0mph /  8km/h 13% 0.00in /  0mm 25.0 W/m2
18:38 72.3 °F /  22.4 °C 20.5 °F /  -6.4 °C 30.31in /  1026.3hPa Calm   8.0mph /  12.9km/h 14% 0.00in /  0mm 23.0 W/m2
18:43 72.0 °F /  22.2 °C 20.1 °F /  -6.6 °C 30.31in /  1026.3hPa East 0.9mph /  1.4km/h 6.0mph /  9.7km/h 14% 0.00in /  0mm 19.0 W/m2
18:48 71.4 °F /  21.9 °C 19.8 °F /  -6.8 °C 30.31in /  1026.3hPa East 4.9mph /  7.9km/h 5.0mph /  8km/h 14% 0.00in /  0mm 16.0 W/m2
18:53 70.7 °F /  21.5 °C 19.2 °F /  -7.1 °C 30.31in /  1026.3hPa SSE 2.9mph /  4.7km/h 10.0mph /  16.1km/h 14% 0.00in /  0mm 11.0 W/m2
18:59 70.0 °F /  21.1 °C 20.1 °F /  -6.6 °C 30.32in /  1026.6hPa Calm   11.0mph /  17.7km/h 15% 0.00in /  0mm 9.0 W/m2
19:04 69.3 °F /  20.7 °C 19.6 °F /  -6.9 °C 30.32in /  1026.6hPa Calm   6.0mph /  9.7km/h 15% 0.00in /  0mm 7.0 W/m2
19:09 68.7 °F /  20.4 °C 19.2 °F /  -7.1 °C 30.32in /  1026.6hPa East 4.9mph /  7.9km/h 6.0mph /  9.7km/h 15% 0.00in /  0mm 5.0 W/m2
19:14 68.4 °F /  20.2 °C 20.5 °F /  -6.4 °C 30.32in /  1026.6hPa ESE 4.9mph /  7.9km/h 5.0mph /  8km/h 16% 0.00in /  0mm 0.0 W/m2
19:19 67.8 °F /  19.9 °C 19.9 °F /  -6.7 °C 30.33in /  1027hPa Calm   6.0mph /  9.7km/h 16% 0.00in /  0mm 0.0 W/m2
19:25 67.3 °F /  19.6 °C 21.0 °F /  -6.1 °C 30.33in /  1027hPa Calm   5.0mph /  8km/h 17% 0.00in /  0mm 0.0 W/m2
19:30 66.9 °F /  19.4 °C 20.7 °F /  -6.3 °C 30.33in /  1027hPa Calm   3.0mph /  4.8km/h 17% 0.00in /  0mm 0.0 W/m2
19:35 66.6 °F /  19.2 °C 20.3 °F /  -6.5 °C 30.33in /  1027hPa NE 6.0mph /  9.7km/h 6.0mph /  9.7km/h 17% 0.00in /  0mm 0.0 W/m2
19:40 66.2 °F /  19 °C 20.1 °F /  -6.6 °C 30.34in /  1027.3hPa Calm   4.0mph /  6.4km/h 17% 0.00in /  0mm 0.0 W/m2
19:45 65.8 °F /  18.8 °C 21.2 °F /  -6 °C 30.34in /  1027.3hPa East 0.9mph /  1.4km/h 7.0mph /  11.3km/h 18% 0.00in /  0mm 0.0 W/m2
19:50 65.7 °F /  18.7 °C 21.0 °F /  -6.1 °C 30.34in /  1027.3hPa East 0.9mph /  1.4km/h 5.0mph /  8km/h 18% 0.00in /  0mm 0.0 W/m2
20:00 64.9 °F /  18.3 °C 20.5 °F /  -6.4 °C 30.34in /  1027.3hPa East 2.9mph /  4.7km/h 5.0mph /  8km/h 18% 0.00in /  0mm 0.0 W/m2
20:05 64.8 °F /  18.2 °C 20.3 °F /  -6.5 °C 30.35in /  1027.7hPa SE 0.9mph /  1.4km/h 4.0mph /  6.4km/h 18% 0.00in /  0mm 0.0 W/m2
20:10 64.6 °F /  18.1 °C 20.1 °F /  -6.6 °C 30.35in /  1027.7hPa East 4.9mph /  7.9km/h 5.0mph /  8km/h 18% 0.00in /  0mm 0.0 W/m2
20:15 64.2 °F /  17.9 °C 19.8 °F /  -6.8 °C 30.35in /  1027.7hPa East 2.0mph /  3.2km/h 7.0mph /  11.3km/h 18% 0.00in /  0mm 0.0 W/m2
20:20 64.0 °F /  17.8 °C 19.6 °F /  -6.9 °C 30.35in /  1027.7hPa ENE 2.0mph /  3.2km/h 6.0mph /  9.7km/h 18% 0.00in /  0mm 0.0 W/m2
20:25 63.9 °F /  17.7 °C 19.6 °F /  -6.9 °C 30.35in /  1027.7hPa ESE 4.0mph /  6.4km/h 4.0mph /  6.4km/h 18% 0.00in /  0mm 0.0 W/m2
20:30 63.7 °F /  17.6 °C 19.4 °F /  -7 °C 30.36in /  1028hPa ESE 6.0mph /  9.7km/h 9.0mph /  14.5km/h 18% 0.00in /  0mm 0.0 W/m2
20:36 63.7 °F /  17.6 °C 20.7 °F /  -6.3 °C 30.36in /  1028hPa South 0.9mph /  1.4km/h 7.0mph /  11.3km/h 19% 0.00in /  0mm 0.0 W/m2
20:41 63.3 °F /  17.4 °C 20.3 °F /  -6.5 °C 30.36in /  1028hPa SE 0.9mph /  1.4km/h 7.0mph /  11.3km/h 19% 0.00in /  0mm 0.0 W/m2
20:46 63.1 °F /  17.3 °C 20.1 °F /  -6.6 °C 30.36in /  1028hPa ESE 2.9mph /  4.7km/h 6.0mph /  9.7km/h 19% 0.00in /  0mm 0.0 W/m2
20:51 63.0 °F /  17.2 °C 20.1 °F /  -6.6 °C 30.36in /  1028hPa SE 0.9mph /  1.4km/h 5.0mph /  8km/h 19% 0.00in /  0mm 0.0 W/m2
20:56 63.0 °F /  17.2 °C 20.1 °F /  -6.6 °C 30.36in /  1028hPa ESE 4.9mph /  7.9km/h 7.0mph /  11.3km/h 19% 0.00in /  0mm 0.0 W/m2
21:01 63.0 °F /  17.2 °C 20.1 °F /  -6.6 °C 30.36in /  1028hPa East 2.0mph /  3.2km/h 8.0mph /  12.9km/h 19% 0.00in /  0mm 0.0 W/m2
21:06 62.8 °F /  17.1 °C 19.9 °F /  -6.7 °C 30.36in /  1028hPa ESE 4.9mph /  7.9km/h 7.0mph /  11.3km/h 19% 0.00in /  0mm 0.0 W/m2
21:11 62.8 °F /  17.1 °C 19.9 °F /  -6.7 °C 30.36in /  1028hPa ESE 2.9mph /  4.7km/h 10.0mph /  16.1km/h 19% 0.00in /  0mm 0.0 W/m2
21:16 62.6 °F /  17 °C 19.8 °F /  -6.8 °C 30.36in /  1028hPa East 2.9mph /  4.7km/h 10.0mph /  16.1km/h 19% 0.00in /  0mm 0.0 W/m2
21:22 62.4 °F /  16.9 °C 20.8 °F /  -6.2 °C 30.37in /  1028.3hPa East 2.9mph /  4.7km/h 8.0mph /  12.9km/h 20% 0.00in /  0mm 0.0 W/m2
21:27 62.2 °F /  16.8 °C 20.7 °F /  -6.3 °C 30.36in /  1028hPa Calm   6.0mph /  9.7km/h 20% 0.00in /  0mm 0.0 W/m2
21:32 62.2 °F /  16.8 °C 20.7 °F /  -6.3 °C 30.37in /  1028.3hPa ESE 2.0mph /  3.2km/h 6.0mph /  9.7km/h 20% 0.00in /  0mm 0.0 W/m2
21:37 62.1 °F /  16.7 °C 20.5 °F /  -6.4 °C 30.37in /  1028.3hPa ESE 4.0mph /  6.4km/h 8.0mph /  12.9km/h 20% 0.00in /  0mm 0.0 W/m2
21:42 61.9 °F /  16.6 °C 20.3 °F /  -6.5 °C 30.37in /  1028.3hPa ESE 4.0mph /  6.4km/h 9.0mph /  14.5km/h 20% 0.00in /  0mm 0.0 W/m2
21:47 61.9 °F /  16.6 °C 20.3 °F /  -6.5 °C 30.37in /  1028.3hPa SW 2.9mph /  4.7km/h 10.0mph /  16.1km/h 20% 0.00in /  0mm 0.0 W/m2
21:52 61.5 °F /  16.4 °C 20.1 °F /  -6.6 °C 30.37in /  1028.3hPa SE 2.0mph /  3.2km/h 9.0mph /  14.5km/h 20% 0.00in /  0mm 0.0 W/m2
21:57 61.5 °F /  16.4 °C 20.1 °F /  -6.6 °C 30.37in /  1028.3hPa ESE 2.0mph /  3.2km/h 9.0mph /  14.5km/h 20% 0.00in /  0mm 0.0 W/m2
22:02 61.3 °F /  16.3 °C 19.9 °F /  -6.7 °C 30.37in /  1028.3hPa ENE 2.9mph /  4.7km/h 11.0mph /  17.7km/h 20% 0.00in /  0mm 0.0 W/m2
22:07 61.3 °F /  16.3 °C 19.9 °F /  -6.7 °C 30.37in /  1028.3hPa ESE 2.0mph /  3.2km/h 6.0mph /  9.7km/h 20% 0.00in /  0mm 0.0 W/m2
22:13 61.2 °F /  16.2 °C 19.8 °F /  -6.8 °C 30.37in /  1028.3hPa NE 0.9mph /  1.4km/h 4.0mph /  6.4km/h 20% 0.00in /  0mm 0.0 W/m2
22:18 61.2 °F /  16.2 °C 20.8 °F /  -6.2 °C 30.37in /  1028.3hPa ENE 0.9mph /  1.4km/h 4.0mph /  6.4km/h 21% 0.00in /  0mm 0.0 W/m2
22:23 61.0 °F /  16.1 °C 19.6 °F /  -6.9 °C 30.37in /  1028.3hPa Calm   8.0mph /  12.9km/h 20% 0.00in /  0mm 0.0 W/m2
22:28 61.0 °F /  16.1 °C 19.6 °F /  -6.9 °C 30.37in /  1028.3hPa ESE 2.0mph /  3.2km/h 6.0mph /  9.7km/h 20% 0.00in /  0mm 0.0 W/m2
22:33 60.8 °F /  16 °C 20.7 °F /  -6.3 °C 30.38in /  1028.7hPa ENE 0.9mph /  1.4km/h 6.0mph /  9.7km/h 21% 0.00in /  0mm 0.0 W/m2
22:38 60.6 °F /  15.9 °C 20.5 °F /  -6.4 °C 30.37in /  1028.3hPa SE 0.9mph /  1.4km/h 8.0mph /  12.9km/h 21% 0.00in /  0mm 0.0 W/m2
22:43 60.4 °F /  15.8 °C 20.3 °F /  -6.5 °C 30.38in /  1028.7hPa SE 0.9mph /  1.4km/h 7.0mph /  11.3km/h 21% 0.00in /  0mm 0.0 W/m2
22:48 60.4 °F /  15.8 °C 20.3 °F /  -6.5 °C 30.38in /  1028.7hPa Calm   5.0mph /  8km/h 21% 0.00in /  0mm 0.0 W/m2
22:58 60.3 °F /  15.7 °C 20.1 °F /  -6.6 °C 30.38in /  1028.7hPa East 2.9mph /  4.7km/h 4.0mph /  6.4km/h 21% 0.00in /  0mm 0.0 W/m2
23:03 60.3 °F /  15.7 °C 20.1 °F /  -6.6 °C 30.38in /  1028.7hPa Calm   3.0mph /  4.8km/h 21% 0.00in /  0mm 0.0 W/m2
23:09 60.1 °F /  15.6 °C 19.9 °F /  -6.7 °C 30.38in /  1028.7hPa ESE 0.9mph /  1.4km/h 7.0mph /  11.3km/h 21% 0.00in /  0mm 0.0 W/m2
23:14 60.1 °F /  15.6 °C 19.9 °F /  -6.7 °C 30.38in /  1028.7hPa Calm   6.0mph /  9.7km/h 21% 0.00in /  0mm 0.0 W/m2
23:19 59.9 °F /  15.5 °C 19.9 °F /  -6.7 °C 30.38in /  1028.7hPa ESE 2.9mph /  4.7km/h 5.0mph /  8km/h 21% 0.00in /  0mm 0.0 W/m2
23:24 59.7 °F /  15.4 °C 19.8 °F /  -6.8 °C 30.38in /  1028.7hPa ESE 0.9mph /  1.4km/h 3.0mph /  4.8km/h 21% 0.00in /  0mm 0.0 W/m2
23:29 59.5 °F /  15.3 °C 19.6 °F /  -6.9 °C 30.38in /  1028.7hPa East 2.0mph /  3.2km/h 7.0mph /  11.3km/h 21% 0.00in /  0mm 0.0 W/m2
23:34 59.5 °F /  15.3 °C 19.6 °F /  -6.9 °C 30.38in /  1028.7hPa Calm   3.0mph /  4.8km/h 21% 0.00in /  0mm 0.0 W/m2
23:39 59.4 °F /  15.2 °C 20.5 °F /  -6.4 °C 30.38in /  1028.7hPa Calm   2.0mph /  3.2km/h 22% 0.00in /  0mm 0.0 W/m2
23:44 59.2 °F /  15.1 °C 20.3 °F /  -6.5 °C 30.38in /  1028.7hPa ENE 0.9mph /  1.4km/h 2.0mph /  3.2km/h 22% 0.00in /  0mm 0.0 W/m2
23:49 59.0 °F /  15 °C 20.1 °F /  -6.6 °C 30.38in /  1028.7hPa Calm   3.0mph /  4.8km/h 22% 0.00in /  0mm 0.0 W/m2
23:54 58.8 °F /  14.9 °C 20.1 °F /  -6.6 °C 30.38in /  1028.7hPa East 0.9mph /  1.4km/h 2.0mph /  3.2km/h 22% 0.00in /  0mm 0.0 W/m2
Olympia, Windhoek, Namibia
Compliments of Weather Underground - 3.25 mb